sensor_id;sensor_type;location;lat;lon;timestamp;noise_LAeq;noise_LA_min;noise_LA_max;noise_LA01;noise_LA95
66460;Laerm;58055;52.456;4.738;2022-08-16T00:00:05;36.27;34.46;38.12;;
66460;Laerm;58055;52.456;4.738;2022-08-16T00:00:18;36.22;34.22;37.86;;
66460;Laerm;58055;52.456;4.738;2022-08-16T00:00:30;36.26;34.26;38.75;;
66460;Laerm;58055;52.456;4.738;2022-08-16T00:00:43;36.02;34.23;39.98;;
66460;Laerm;58055;52.456;4.738;2022-08-16T00:00:53;35.80;33.80;40.11;;
66460;Laerm;58055;52.456;4.738;2022-08-16T00:01:04;35.79;33.98;38.57;;
66460;Laerm;58055;52.456;4.738;2022-08-16T00:01:15;36.87;34.05;40.68;;
66460;Laerm;58055;52.456;4.738;2022-08-16T00:01:26;36.19;34.23;38.04;;
66460;Laerm;58055;52.456;4.738;2022-08-16T00:01:36;36.21;34.39;38.01;;
66460;Laerm;58055;52.456;4.738;2022-08-16T00:01:47;36.11;34.18;37.82;;
66460;Laerm;58055;52.456;4.738;2022-08-16T00:01:57;36.86;34.15;38.91;;
66460;Laerm;58055;52.456;4.738;2022-08-16T00:02:08;36.10;33.80;40.54;;
66460;Laerm;58055;52.456;4.738;2022-08-16T00:02:18;36.02;34.04;42.12;;
66460;Laerm;58055;52.456;4.738;2022-08-16T00:02:28;35.83;33.54;41.25;;
66460;Laerm;58055;52.456;4.738;2022-08-16T00:02:39;36.42;34.74;38.57;;
66460;Laerm;58055;52.456;4.738;2022-08-16T00:02:49;36.52;34.78;40.67;;
66460;Laerm;58055;52.456;4.738;2022-08-16T00:03:00;36.22;34.25;40.02;;
66460;Laerm;58055;52.456;4.738;2022-08-16T00:03:11;35.70;33.61;39.67;;
66460;Laerm;58055;52.456;4.738;2022-08-16T00:03:21;35.90;34.07;39.28;;
66460;Laerm;58055;52.456;4.738;2022-08-16T00:03:32;36.19;34.20;38.21;;
66460;Laerm;58055;52.456;4.738;2022-08-16T00:03:42;36.59;34.22;45.06;;
66460;Laerm;58055;52.456;4.738;2022-08-16T00:03:53;37.56;33.62;45.69;;
66460;Laerm;58055;52.456;4.738;2022-08-16T00:04:03;36.19;33.87;38.95;;
66460;Laerm;58055;52.456;4.738;2022-08-16T00:04:14;36.05;33.83;37.97;;
66460;Laerm;58055;52.456;4.738;2022-08-16T00:04:24;36.23;34.52;37.88;;
66460;Laerm;58055;52.456;4.738;2022-08-16T00:04:34;35.97;34.08;37.94;;
66460;Laerm;58055;52.456;4.738;2022-08-16T00:04:44;35.63;33.63;37.63;;
66460;Laerm;58055;52.456;4.738;2022-08-16T00:04:55;35.77;34.05;40.00;;
66460;Laerm;58055;52.456;4.738;2022-08-16T00:05:08;35.87;34.05;38.26;;
66460;Laerm;58055;52.456;4.738;2022-08-16T00:05:19;38.16;34.97;42.11;;
66460;Laerm;58055;52.456;4.738;2022-08-16T00:05:29;41.17;35.70;49.50;;
66460;Laerm;58055;52.456;4.738;2022-08-16T00:05:40;43.90;35.91;51.84;;
66460;Laerm;58055;52.456;4.738;2022-08-16T00:05:50;38.91;35.94;42.98;;
66460;Laerm;58055;52.456;4.738;2022-08-16T00:06:01;40.27;36.68;45.64;;
66460;Laerm;58055;52.456;4.738;2022-08-16T00:06:11;38.13;36.38;40.83;;
66460;Laerm;58055;52.456;4.738;2022-08-16T00:06:22;37.44;35.58;39.61;;
66460;Laerm;58055;52.456;4.738;2022-08-16T00:06:32;37.62;35.90;40.80;;
66460;Laerm;58055;52.456;4.738;2022-08-16T00:06:42;36.78;35.25;38.45;;
66460;Laerm;58055;52.456;4.738;2022-08-16T00:06:53;38.22;35.40;45.41;;
66460;Laerm;58055;52.456;4.738;2022-08-16T00:07:03;38.37;36.05;40.63;;
66460;Laerm;58055;52.456;4.738;2022-08-16T00:07:13;38.04;36.26;39.60;;
66460;Laerm;58055;52.456;4.738;2022-08-16T00:07:24;38.26;36.69;39.89;;
66460;Laerm;58055;52.456;4.738;2022-08-16T00:07:34;38.70;36.85;41.59;;
66460;Laerm;58055;52.456;4.738;2022-08-16T00:07:45;42.84;36.62;48.81;;
66460;Laerm;58055;52.456;4.738;2022-08-16T00:07:55;50.26;42.13;56.98;;
66460;Laerm;58055;52.456;4.738;2022-08-16T00:08:05;61.78;51.21;69.31;;
66460;Laerm;58055;52.456;4.738;2022-08-16T00:08:16;67.73;62.73;73.19;;
66460;Laerm;58055;52.456;4.738;2022-08-16T00:08:27;61.30;51.96;66.35;;
66460;Laerm;58055;52.456;4.738;2022-08-16T00:08:37;51.70;43.08;56.71;;
66460;Laerm;58055;52.456;4.738;2022-08-16T00:08:47;45.47;38.82;52.35;;
66460;Laerm;58055;52.456;4.738;2022-08-16T00:08:57;43.20;38.91;47.55;;
66460;Laerm;58055;52.456;4.738;2022-08-16T00:09:08;40.42;36.43;45.27;;
66460;Laerm;58055;52.456;4.738;2022-08-16T00:09:19;39.46;34.93;45.80;;
66460;Laerm;58055;52.456;4.738;2022-08-16T00:09:29;37.71;35.59;39.98;;
66460;Laerm;58055;52.456;4.738;2022-08-16T00:09:40;36.51;34.54;38.33;;
66460;Laerm;58055;52.456;4.738;2022-08-16T00:09:50;36.91;35.10;39.07;;
66460;Laerm;58055;52.456;4.738;2022-08-16T00:10:01;36.46;34.25;38.67;;
66460;Laerm;58055;52.456;4.738;2022-08-16T00:10:12;37.77;34.83;41.88;;
66460;Laerm;58055;52.456;4.738;2022-08-16T00:10:24;37.99;34.27;45.83;;
66460;Laerm;58055;52.456;4.738;2022-08-16T00:10:35;36.60;33.98;41.09;;
66460;Laerm;58055;52.456;4.738;2022-08-16T00:10:45;37.27;35.28;40.84;;
66460;Laerm;58055;52.456;4.738;2022-08-16T00:10:56;37.73;35.45;40.86;;
66460;Laerm;58055;52.456;4.738;2022-08-16T00:11:07;38.07;34.56;41.88;;
66460;Laerm;58055;52.456;4.738;2022-08-16T00:11:18;38.20;34.85;42.40;;
66460;Laerm;58055;52.456;4.738;2022-08-16T00:11:28;37.90;35.42;42.32;;
66460;Laerm;58055;52.456;4.738;2022-08-16T00:11:39;38.68;35.02;47.15;;
66460;Laerm;58055;52.456;4.738;2022-08-16T00:11:50;38.43;35.33;43.26;;
66460;Laerm;58055;52.456;4.738;2022-08-16T00:12:00;38.12;35.69;41.31;;
66460;Laerm;58055;52.456;4.738;2022-08-16T00:12:10;36.84;34.42;39.41;;
66460;Laerm;58055;52.456;4.738;2022-08-16T00:12:21;37.38;35.30;40.53;;
66460;Laerm;58055;52.456;4.738;2022-08-16T00:12:31;37.25;35.42;40.22;;
66460;Laerm;58055;52.456;4.738;2022-08-16T00:12:42;36.96;34.35;39.84;;
66460;Laerm;58055;52.456;4.738;2022-08-16T00:12:53;36.68;34.23;43.81;;
66460;Laerm;58055;52.456;4.738;2022-08-16T00:13:04;36.87;35.23;39.18;;
66460;Laerm;58055;52.456;4.738;2022-08-16T00:13:15;36.86;34.73;38.27;;
66460;Laerm;58055;52.456;4.738;2022-08-16T00:13:25;36.72;34.50;38.80;;
66460;Laerm;58055;52.456;4.738;2022-08-16T00:13:36;36.62;34.56;38.95;;
66460;Laerm;58055;52.456;4.738;2022-08-16T00:13:47;36.39;34.48;38.29;;
66460;Laerm;58055;52.456;4.738;2022-08-16T00:13:57;36.64;34.39;38.51;;
66460;Laerm;58055;52.456;4.738;2022-08-16T00:14:11;36.63;34.32;38.68;;
66460;Laerm;58055;52.456;4.738;2022-08-16T00:14:23;35.99;34.19;38.00;;
66460;Laerm;58055;52.456;4.738;2022-08-16T00:14:34;36.77;34.18;38.99;;
66460;Laerm;58055;52.456;4.738;2022-08-16T00:14:44;37.43;35.53;39.42;;
66460;Laerm;58055;52.456;4.738;2022-08-16T00:14:56;36.39;34.07;38.42;;
66460;Laerm;58055;52.456;4.738;2022-08-16T00:15:12;37.11;35.51;39.40;;
66460;Laerm;58055;52.456;4.738;2022-08-16T00:15:30;36.95;34.51;39.22;;
66460;Laerm;58055;52.456;4.738;2022-08-16T00:15:44;38.31;34.66;43.08;;
66460;Laerm;58055;52.456;4.738;2022-08-16T00:15:55;37.70;34.94;41.32;;
66460;Laerm;58055;52.456;4.738;2022-08-16T00:16:05;37.66;35.02;41.15;;
66460;Laerm;58055;52.456;4.738;2022-08-16T00:16:15;38.63;36.26;42.03;;
66460;Laerm;58055;52.456;4.738;2022-08-16T00:16:26;38.00;35.14;41.74;;
66460;Laerm;58055;52.456;4.738;2022-08-16T00:16:37;37.07;34.45;41.99;;
66460;Laerm;58055;52.456;4.738;2022-08-16T00:16:47;37.20;35.00;39.87;;
66460;Laerm;58055;52.456;4.738;2022-08-16T00:16:58;36.95;34.48;38.72;;
66460;Laerm;58055;52.456;4.738;2022-08-16T00:17:08;36.86;34.70;38.57;;
66460;Laerm;58055;52.456;4.738;2022-08-16T00:17:19;37.25;34.45;39.42;;
66460;Laerm;58055;52.456;4.738;2022-08-16T00:17:29;36.92;34.73;38.99;;
66460;Laerm;58055;52.456;4.738;2022-08-16T00:17:39;36.93;34.95;39.05;;
66460;Laerm;58055;52.456;4.738;2022-08-16T00:17:50;36.42;34.08;38.14;;
66460;Laerm;58055;52.456;4.738;2022-08-16T00:18:00;36.88;34.84;38.90;;
66460;Laerm;58055;52.456;4.738;2022-08-16T00:18:11;37.02;35.19;38.87;;
66460;Laerm;58055;52.456;4.738;2022-08-16T00:18:21;36.83;34.71;38.95;;
66460;Laerm;58055;52.456;4.738;2022-08-16T00:18:32;36.69;34.78;38.61;;
66460;Laerm;58055;52.456;4.738;2022-08-16T00:18:42;36.80;34.83;39.15;;
66460;Laerm;58055;52.456;4.738;2022-08-16T00:18:52;36.52;34.68;38.69;;
66460;Laerm;58055;52.456;4.738;2022-08-16T00:19:03;36.14;34.51;38.02;;
66460;Laerm;58055;52.456;4.738;2022-08-16T00:19:14;36.52;34.68;42.98;;
66460;Laerm;58055;52.456;4.738;2022-08-16T00:19:26;36.53;34.17;38.32;;
66460;Laerm;58055;52.456;4.738;2022-08-16T00:19:37;37.86;34.89;42.04;;
66460;Laerm;58055;52.456;4.738;2022-08-16T00:19:47;36.76;34.59;40.88;;
66460;Laerm;58055;52.456;4.738;2022-08-16T00:19:58;36.74;34.63;38.66;;
66460;Laerm;58055;52.456;4.738;2022-08-16T00:20:09;40.68;36.57;45.47;;
66460;Laerm;58055;52.456;4.738;2022-08-16T00:20:20;39.71;35.09;44.43;;
66460;Laerm;58055;52.456;4.738;2022-08-16T00:20:31;36.50;34.43;38.96;;
66460;Laerm;58055;52.456;4.738;2022-08-16T00:20:42;36.09;33.34;37.62;;
66460;Laerm;58055;52.456;4.738;2022-08-16T00:20:53;36.60;34.16;38.80;;
66460;Laerm;58055;52.456;4.738;2022-08-16T00:21:03;36.61;34.66;38.97;;
66460;Laerm;58055;52.456;4.738;2022-08-16T00:21:14;36.87;35.00;39.44;;
66460;Laerm;58055;52.456;4.738;2022-08-16T00:21:24;36.46;34.78;38.40;;
66460;Laerm;58055;52.456;4.738;2022-08-16T00:21:34;36.76;34.93;38.55;;
66460;Laerm;58055;52.456;4.738;2022-08-16T00:21:45;36.58;34.58;37.97;;
66460;Laerm;58055;52.456;4.738;2022-08-16T00:21:55;35.93;34.02;37.44;;
66460;Laerm;58055;52.456;4.738;2022-08-16T00:22:06;36.77;33.43;39.67;;
66460;Laerm;58055;52.456;4.738;2022-08-16T00:22:16;40.05;35.53;43.58;;
66460;Laerm;58055;52.456;4.738;2022-08-16T00:22:27;46.19;39.48;51.48;;
66460;Laerm;58055;52.456;4.738;2022-08-16T00:22:38;38.71;35.09;43.21;;
66460;Laerm;58055;52.456;4.738;2022-08-16T00:22:49;37.63;34.70;40.52;;
66460;Laerm;58055;52.456;4.738;2022-08-16T00:22:59;36.82;34.59;39.17;;
66460;Laerm;58055;52.456;4.738;2022-08-16T00:23:10;36.63;34.62;38.59;;
66460;Laerm;58055;52.456;4.738;2022-08-16T00:23:20;36.29;34.79;37.86;;
66460;Laerm;58055;52.456;4.738;2022-08-16T00:23:30;36.23;34.23;37.85;;
66460;Laerm;58055;52.456;4.738;2022-08-16T00:23:41;35.99;33.52;37.91;;
66460;Laerm;58055;52.456;4.738;2022-08-16T00:23:52;36.49;34.06;39.49;;
66460;Laerm;58055;52.456;4.738;2022-08-16T00:24:02;35.79;33.69;37.68;;
66460;Laerm;58055;52.456;4.738;2022-08-16T00:24:13;35.85;33.98;37.77;;
66460;Laerm;58055;52.456;4.738;2022-08-16T00:24:25;35.83;33.72;37.93;;
66460;Laerm;58055;52.456;4.738;2022-08-16T00:24:36;36.02;34.01;38.02;;
66460;Laerm;58055;52.456;4.738;2022-08-16T00:24:46;36.90;34.87;39.56;;
66460;Laerm;58055;52.456;4.738;2022-08-16T00:24:56;36.14;34.19;38.30;;
66460;Laerm;58055;52.456;4.738;2022-08-16T00:25:08;36.26;34.15;37.98;;
66460;Laerm;58055;52.456;4.738;2022-08-16T00:25:19;37.07;34.63;39.17;;
66460;Laerm;58055;52.456;4.738;2022-08-16T00:25:30;37.06;35.00;40.13;;
66460;Laerm;58055;52.456;4.738;2022-08-16T00:25:40;36.62;33.86;39.36;;
66460;Laerm;58055;52.456;4.738;2022-08-16T00:25:50;36.29;33.66;38.67;;
66460;Laerm;58055;52.456;4.738;2022-08-16T00:26:01;36.17;33.49;38.68;;
66460;Laerm;58055;52.456;4.738;2022-08-16T00:26:11;36.27;33.73;38.75;;
66460;Laerm;58055;52.456;4.738;2022-08-16T00:26:22;36.42;34.27;38.44;;
66460;Laerm;58055;52.456;4.738;2022-08-16T00:26:32;37.00;34.95;44.65;;
66460;Laerm;58055;52.456;4.738;2022-08-16T00:26:42;36.46;34.87;39.15;;
66460;Laerm;58055;52.456;4.738;2022-08-16T00:26:53;35.62;33.77;37.39;;
66460;Laerm;58055;52.456;4.738;2022-08-16T00:27:03;35.51;33.93;37.12;;
66460;Laerm;58055;52.456;4.738;2022-08-16T00:27:14;35.82;34.32;38.75;;
66460;Laerm;58055;52.456;4.738;2022-08-16T00:27:24;35.94;33.86;37.47;;
66460;Laerm;58055;52.456;4.738;2022-08-16T00:27:35;36.15;34.36;37.82;;
66460;Laerm;58055;52.456;4.738;2022-08-16T00:27:45;36.04;34.41;39.50;;
66460;Laerm;58055;52.456;4.738;2022-08-16T00:27:55;35.76;33.51;37.84;;
66460;Laerm;58055;52.456;4.738;2022-08-16T00:28:06;35.62;33.36;37.41;;
66460;Laerm;58055;52.456;4.738;2022-08-16T00:28:16;35.33;33.27;37.79;;
66460;Laerm;58055;52.456;4.738;2022-08-16T00:28:27;36.28;33.23;38.01;;
66460;Laerm;58055;52.456;4.738;2022-08-16T00:28:37;35.87;33.76;38.28;;
66460;Laerm;58055;52.456;4.738;2022-08-16T00:28:47;35.00;33.22;36.76;;
66460;Laerm;58055;52.456;4.738;2022-08-16T00:28:57;35.25;33.33;37.46;;
66460;Laerm;58055;52.456;4.738;2022-08-16T00:29:08;36.14;33.91;38.18;;
66460;Laerm;58055;52.456;4.738;2022-08-16T00:29:19;35.84;33.96;37.73;;
66460;Laerm;58055;52.456;4.738;2022-08-16T00:29:29;36.00;34.31;37.78;;
66460;Laerm;58055;52.456;4.738;2022-08-16T00:29:40;35.59;33.52;38.64;;
66460;Laerm;58055;52.456;4.738;2022-08-16T00:29:51;35.25;33.18;37.48;;
66460;Laerm;58055;52.456;4.738;2022-08-16T00:30:02;35.63;33.54;37.43;;
66460;Laerm;58055;52.456;4.738;2022-08-16T00:30:13;35.74;34.09;37.39;;
66460;Laerm;58055;52.456;4.738;2022-08-16T00:30:24;35.68;33.89;37.43;;
66460;Laerm;58055;52.456;4.738;2022-08-16T00:30:34;35.40;33.37;37.58;;
66460;Laerm;58055;52.456;4.738;2022-08-16T00:30:44;35.62;33.62;36.99;;
66460;Laerm;58055;52.456;4.738;2022-08-16T00:30:54;35.61;33.64;37.55;;
66460;Laerm;58055;52.456;4.738;2022-08-16T00:31:05;35.98;33.71;40.46;;
66460;Laerm;58055;52.456;4.738;2022-08-16T00:31:18;37.30;34.37;41.11;;
66460;Laerm;58055;52.456;4.738;2022-08-16T00:31:30;40.36;35.61;46.05;;
66460;Laerm;58055;52.456;4.738;2022-08-16T00:31:40;46.46;37.35;52.00;;
66460;Laerm;58055;52.456;4.738;2022-08-16T00:31:51;57.41;49.71;64.63;;
66460;Laerm;58055;52.456;4.738;2022-08-16T00:32:08;63.79;58.59;67.24;;
66460;Laerm;58055;52.456;4.738;2022-08-16T00:32:18;54.33;44.29;60.69;;
66460;Laerm;58055;52.456;4.738;2022-08-16T00:32:29;45.47;38.99;50.81;;
66460;Laerm;58055;52.456;4.738;2022-08-16T00:32:40;40.42;37.05;44.32;;
66460;Laerm;58055;52.456;4.738;2022-08-16T00:32:51;39.78;34.67;44.38;;
66460;Laerm;58055;52.456;4.738;2022-08-16T00:33:02;36.19;34.20;38.01;;
66460;Laerm;58055;52.456;4.738;2022-08-16T00:33:13;35.72;33.82;38.05;;
66460;Laerm;58055;52.456;4.738;2022-08-16T00:33:23;35.77;33.94;38.01;;
66460;Laerm;58055;52.456;4.738;2022-08-16T00:33:34;35.81;33.87;37.27;;
66460;Laerm;58055;52.456;4.738;2022-08-16T00:33:44;35.53;33.01;37.08;;
66460;Laerm;58055;52.456;4.738;2022-08-16T00:33:54;35.66;33.95;37.42;;
66460;Laerm;58055;52.456;4.738;2022-08-16T00:34:04;35.60;33.86;37.29;;
66460;Laerm;58055;52.456;4.738;2022-08-16T00:34:15;35.23;33.41;37.05;;
66460;Laerm;58055;52.456;4.738;2022-08-16T00:34:25;35.59;33.99;37.27;;
66460;Laerm;58055;52.456;4.738;2022-08-16T00:34:36;36.14;34.21;38.61;;
66460;Laerm;58055;52.456;4.738;2022-08-16T00:34:46;36.53;33.73;40.53;;
66460;Laerm;58055;52.456;4.738;2022-08-16T00:34:57;36.06;34.05;38.93;;
66460;Laerm;58055;52.456;4.738;2022-08-16T00:35:08;35.64;33.52;37.68;;
66460;Laerm;58055;52.456;4.738;2022-08-16T00:35:20;35.91;34.15;37.97;;
66460;Laerm;58055;52.456;4.738;2022-08-16T00:35:32;35.93;33.74;38.10;;
66460;Laerm;58055;52.456;4.738;2022-08-16T00:35:43;35.69;34.12;38.18;;
66460;Laerm;58055;52.456;4.738;2022-08-16T00:35:53;35.54;33.85;38.05;;
66460;Laerm;58055;52.456;4.738;2022-08-16T00:36:03;36.51;33.83;40.15;;
66460;Laerm;58055;52.456;4.738;2022-08-16T00:36:13;36.54;34.67;38.57;;
66460;Laerm;58055;52.456;4.738;2022-08-16T00:36:24;35.90;33.86;38.21;;
66460;Laerm;58055;52.456;4.738;2022-08-16T00:36:35;35.94;34.05;37.70;;
66460;Laerm;58055;52.456;4.738;2022-08-16T00:36:45;35.79;34.37;38.14;;
66460;Laerm;58055;52.456;4.738;2022-08-16T00:36:55;35.65;34.08;37.82;;
66460;Laerm;58055;52.456;4.738;2022-08-16T00:37:06;36.08;34.16;40.01;;
66460;Laerm;58055;52.456;4.738;2022-08-16T00:37:16;36.18;34.38;38.26;;
66460;Laerm;58055;52.456;4.738;2022-08-16T00:37:27;36.48;34.41;38.19;;
66460;Laerm;58055;52.456;4.738;2022-08-16T00:37:37;38.87;35.13;42.36;;
66460;Laerm;58055;52.456;4.738;2022-08-16T00:37:48;41.64;36.15;47.90;;
66460;Laerm;58055;52.456;4.738;2022-08-16T00:37:58;50.80;40.76;56.93;;
66460;Laerm;58055;52.456;4.738;2022-08-16T00:38:11;61.97;49.33;67.39;;
66460;Laerm;58055;52.456;4.738;2022-08-16T00:38:22;62.31;54.75;66.39;;
66460;Laerm;58055;52.456;4.738;2022-08-16T00:38:32;53.59;47.71;59.05;;
66460;Laerm;58055;52.456;4.738;2022-08-16T00:38:42;46.37;40.35;51.77;;
66460;Laerm;58055;52.456;4.738;2022-08-16T00:38:53;41.65;36.99;46.83;;
66460;Laerm;58055;52.456;4.738;2022-08-16T00:39:03;39.62;36.15;42.71;;
66460;Laerm;58055;52.456;4.738;2022-08-16T00:39:14;37.68;35.20;40.34;;
66460;Laerm;58055;52.456;4.738;2022-08-16T00:39:25;36.79;34.11;39.74;;
66460;Laerm;58055;52.456;4.738;2022-08-16T00:39:36;35.97;34.36;37.85;;
66460;Laerm;58055;52.456;4.738;2022-08-16T00:39:46;35.96;33.55;38.79;;
66460;Laerm;58055;52.456;4.738;2022-08-16T00:39:56;36.27;34.65;38.25;;
66460;Laerm;58055;52.456;4.738;2022-08-16T00:40:07;36.35;34.43;37.95;;
66460;Laerm;58055;52.456;4.738;2022-08-16T00:40:24;35.73;33.62;37.59;;
66460;Laerm;58055;52.456;4.738;2022-08-16T00:40:39;36.22;33.97;40.86;;
66460;Laerm;58055;52.456;4.738;2022-08-16T00:40:50;36.13;34.49;38.59;;
66460;Laerm;58055;52.456;4.738;2022-08-16T00:41:01;35.91;34.32;38.17;;
66460;Laerm;58055;52.456;4.738;2022-08-16T00:41:11;35.79;34.02;37.37;;
66460;Laerm;58055;52.456;4.738;2022-08-16T00:41:22;35.41;33.65;37.96;;
66460;Laerm;58055;52.456;4.738;2022-08-16T00:41:33;35.51;32.96;42.75;;
66460;Laerm;58055;52.456;4.738;2022-08-16T00:41:45;35.44;33.61;37.03;;
66460;Laerm;58055;52.456;4.738;2022-08-16T00:41:55;35.95;33.77;41.88;;
66460;Laerm;58055;52.456;4.738;2022-08-16T00:42:06;36.05;34.16;38.52;;
66460;Laerm;58055;52.456;4.738;2022-08-16T00:42:16;35.71;33.53;37.53;;
66460;Laerm;58055;52.456;4.738;2022-08-16T00:42:28;35.80;34.10;37.76;;
66460;Laerm;58055;52.456;4.738;2022-08-16T00:42:39;35.89;33.76;37.85;;
66460;Laerm;58055;52.456;4.738;2022-08-16T00:42:49;35.70;33.70;37.58;;
66460;Laerm;58055;52.456;4.738;2022-08-16T00:42:59;35.67;34.01;37.58;;
66460;Laerm;58055;52.456;4.738;2022-08-16T00:43:15;36.03;33.38;37.68;;
66460;Laerm;58055;52.456;4.738;2022-08-16T00:43:27;36.38;34.07;38.45;;
66460;Laerm;58055;52.456;4.738;2022-08-16T00:43:38;36.20;34.36;38.03;;
66460;Laerm;58055;52.456;4.738;2022-08-16T00:43:48;35.87;33.79;38.47;;
66460;Laerm;58055;52.456;4.738;2022-08-16T00:43:59;36.07;33.83;38.81;;
66460;Laerm;58055;52.456;4.738;2022-08-16T00:44:11;36.29;33.98;38.09;;
66460;Laerm;58055;52.456;4.738;2022-08-16T00:44:23;35.99;33.90;38.46;;
66460;Laerm;58055;52.456;4.738;2022-08-16T00:44:33;35.71;34.19;37.61;;
66460;Laerm;58055;52.456;4.738;2022-08-16T00:44:45;35.75;33.87;37.95;;
66460;Laerm;58055;52.456;4.738;2022-08-16T00:45:03;36.93;34.00;45.55;;
66460;Laerm;58055;52.456;4.738;2022-08-16T00:45:22;37.36;35.49;39.09;;
66460;Laerm;58055;52.456;4.738;2022-08-16T00:45:40;37.51;35.51;39.52;;
66460;Laerm;58055;52.456;4.738;2022-08-16T00:45:56;37.91;36.28;41.61;;
66460;Laerm;58055;52.456;4.738;2022-08-16T00:46:20;37.74;35.71;39.55;;
66460;Laerm;58055;52.456;4.738;2022-08-16T00:46:35;38.08;36.16;41.11;;
66460;Laerm;58055;52.456;4.738;2022-08-16T00:46:53;38.67;36.74;40.92;;
66460;Laerm;58055;52.456;4.738;2022-08-16T00:47:05;38.67;36.06;41.62;;
66460;Laerm;58055;52.456;4.738;2022-08-16T00:47:17;38.35;35.83;41.56;;
66460;Laerm;58055;52.456;4.738;2022-08-16T00:47:28;37.45;34.43;42.49;;
66460;Laerm;58055;52.456;4.738;2022-08-16T00:47:41;36.65;34.40;39.47;;
66460;Laerm;58055;52.456;4.738;2022-08-16T00:47:54;37.19;35.30;39.45;;
66460;Laerm;58055;52.456;4.738;2022-08-16T00:48:05;36.60;34.61;38.85;;
66460;Laerm;58055;52.456;4.738;2022-08-16T00:48:16;36.50;34.42;39.84;;
66460;Laerm;58055;52.456;4.738;2022-08-16T00:48:28;36.43;34.14;38.73;;
66460;Laerm;58055;52.456;4.738;2022-08-16T00:48:39;35.98;33.70;38.61;;
66460;Laerm;58055;52.456;4.738;2022-08-16T00:48:50;35.80;33.41;37.81;;
66460;Laerm;58055;52.456;4.738;2022-08-16T00:49:03;36.12;33.91;37.73;;
66460;Laerm;58055;52.456;4.738;2022-08-16T00:49:14;37.86;34.99;44.25;;
66460;Laerm;58055;52.456;4.738;2022-08-16T00:49:24;36.78;34.54;39.23;;
66460;Laerm;58055;52.456;4.738;2022-08-16T00:49:35;37.27;35.48;39.62;;
66460;Laerm;58055;52.456;4.738;2022-08-16T00:49:45;36.91;33.82;40.82;;
66460;Laerm;58055;52.456;4.738;2022-08-16T00:49:56;36.77;34.79;38.81;;
66460;Laerm;58055;52.456;4.738;2022-08-16T00:50:06;36.71;34.99;38.94;;
66460;Laerm;58055;52.456;4.738;2022-08-16T00:50:18;36.47;33.97;38.81;;
66460;Laerm;58055;52.456;4.738;2022-08-16T00:50:30;36.83;34.84;40.54;;
66460;Laerm;58055;52.456;4.738;2022-08-16T00:50:41;36.50;34.92;38.27;;
66460;Laerm;58055;52.456;4.738;2022-08-16T00:50:52;36.62;34.39;38.86;;
66460;Laerm;58055;52.456;4.738;2022-08-16T00:51:02;36.78;34.98;41.48;;
66460;Laerm;58055;52.456;4.738;2022-08-16T00:51:14;36.64;34.42;43.31;;
66460;Laerm;58055;52.456;4.738;2022-08-16T00:51:24;35.84;33.71;37.58;;
66460;Laerm;58055;52.456;4.738;2022-08-16T00:51:35;36.25;33.55;39.51;;
66460;Laerm;58055;52.456;4.738;2022-08-16T00:51:46;35.99;34.10;39.18;;
66460;Laerm;58055;52.456;4.738;2022-08-16T00:51:56;35.98;34.04;38.12;;
66460;Laerm;58055;52.456;4.738;2022-08-16T00:52:07;35.50;33.59;37.85;;
66460;Laerm;58055;52.456;4.738;2022-08-16T00:52:17;35.43;33.55;37.14;;
66460;Laerm;58055;52.456;4.738;2022-08-16T00:52:27;36.13;33.91;38.05;;
66460;Laerm;58055;52.456;4.738;2022-08-16T00:52:39;35.98;34.28;37.68;;
66460;Laerm;58055;52.456;4.738;2022-08-16T00:52:49;36.13;34.24;37.82;;
66460;Laerm;58055;52.456;4.738;2022-08-16T00:52:59;36.93;34.90;39.19;;
66460;Laerm;58055;52.456;4.738;2022-08-16T00:53:11;36.55;34.11;39.98;;
66460;Laerm;58055;52.456;4.738;2022-08-16T00:53:22;35.81;34.30;37.50;;
66460;Laerm;58055;52.456;4.738;2022-08-16T00:53:32;35.77;34.09;37.33;;
66460;Laerm;58055;52.456;4.738;2022-08-16T00:53:42;36.44;34.33;40.22;;
66460;Laerm;58055;52.456;4.738;2022-08-16T00:53:53;38.29;35.96;41.72;;
66460;Laerm;58055;52.456;4.738;2022-08-16T00:54:04;39.12;35.41;43.65;;
66460;Laerm;58055;52.456;4.738;2022-08-16T00:54:15;41.68;35.86;47.26;;
66460;Laerm;58055;52.456;4.738;2022-08-16T00:54:26;37.99;35.16;42.98;;
66460;Laerm;58055;52.456;4.738;2022-08-16T00:54:37;36.43;34.59;38.35;;
66460;Laerm;58055;52.456;4.738;2022-08-16T00:54:47;36.55;34.72;38.96;;
66460;Laerm;58055;52.456;4.738;2022-08-16T00:54:57;36.48;34.34;38.13;;
66460;Laerm;58055;52.456;4.738;2022-08-16T00:55:08;36.06;34.39;38.28;;
66460;Laerm;58055;52.456;4.738;2022-08-16T00:55:19;35.83;34.01;37.44;;
66460;Laerm;58055;52.456;4.738;2022-08-16T00:55:31;35.19;33.14;37.44;;
66460;Laerm;58055;52.456;4.738;2022-08-16T00:55:48;35.45;33.36;37.43;;
66460;Laerm;58055;52.456;4.738;2022-08-16T00:56:02;35.87;33.79;37.63;;
66460;Laerm;58055;52.456;4.738;2022-08-16T00:56:15;35.94;34.06;37.94;;
66460;Laerm;58055;52.456;4.738;2022-08-16T00:56:28;35.87;33.86;37.82;;
66460;Laerm;58055;52.456;4.738;2022-08-16T00:56:40;35.63;34.33;37.30;;
66460;Laerm;58055;52.456;4.738;2022-08-16T00:56:51;36.23;33.78;38.15;;
66460;Laerm;58055;52.456;4.738;2022-08-16T00:57:02;36.14;34.09;38.71;;
66460;Laerm;58055;52.456;4.738;2022-08-16T00:57:12;35.75;33.39;37.39;;
66460;Laerm;58055;52.456;4.738;2022-08-16T00:57:23;36.21;34.63;38.47;;
66460;Laerm;58055;52.456;4.738;2022-08-16T00:57:33;35.84;34.25;37.23;;
66460;Laerm;58055;52.456;4.738;2022-08-16T00:57:44;35.93;33.98;37.56;;
66460;Laerm;58055;52.456;4.738;2022-08-16T00:57:56;35.71;33.41;37.18;;
66460;Laerm;58055;52.456;4.738;2022-08-16T00:58:07;35.66;33.61;38.04;;
66460;Laerm;58055;52.456;4.738;2022-08-16T00:58:19;36.21;34.14;38.12;;
66460;Laerm;58055;52.456;4.738;2022-08-16T00:58:30;36.13;34.29;37.81;;
66460;Laerm;58055;52.456;4.738;2022-08-16T00:58:42;35.75;33.87;37.82;;
66460;Laerm;58055;52.456;4.738;2022-08-16T00:58:53;36.42;34.45;38.36;;
66460;Laerm;58055;52.456;4.738;2022-08-16T00:59:04;36.62;34.75;39.17;;
66460;Laerm;58055;52.456;4.738;2022-08-16T00:59:14;36.69;34.43;39.22;;
66460;Laerm;58055;52.456;4.738;2022-08-16T00:59:26;37.30;34.51;42.82;;
66460;Laerm;58055;52.456;4.738;2022-08-16T00:59:37;37.43;34.76;42.62;;
66460;Laerm;58055;52.456;4.738;2022-08-16T00:59:48;37.25;34.54;41.16;;
66460;Laerm;58055;52.456;4.738;2022-08-16T00:59:58;37.33;34.84;42.23;;
66460;Laerm;58055;52.456;4.738;2022-08-16T01:00:10;36.67;34.60;41.45;;
66460;Laerm;58055;52.456;4.738;2022-08-16T01:00:22;36.26;34.06;39.03;;
66460;Laerm;58055;52.456;4.738;2022-08-16T01:00:35;36.40;34.19;38.21;;
66460;Laerm;58055;52.456;4.738;2022-08-16T01:00:45;36.02;33.48;37.55;;
66460;Laerm;58055;52.456;4.738;2022-08-16T01:00:56;35.46;33.49;37.20;;
66460;Laerm;58055;52.456;4.738;2022-08-16T01:01:07;35.56;33.81;37.18;;
66460;Laerm;58055;52.456;4.738;2022-08-16T01:01:18;36.48;34.81;38.31;;
66460;Laerm;58055;52.456;4.738;2022-08-16T01:01:28;36.60;34.68;38.31;;
66460;Laerm;58055;52.456;4.738;2022-08-16T01:01:39;36.36;34.41;39.08;;
66460;Laerm;58055;52.456;4.738;2022-08-16T01:01:50;36.57;34.53;38.74;;
66460;Laerm;58055;52.456;4.738;2022-08-16T01:02:03;36.65;34.56;39.66;;